createdAt,value
2022-11-08T00:00:37.733Z,0
2022-11-08T00:05:58.020Z,0
2022-11-08T00:11:15.287Z,0
2022-11-08T00:16:35.984Z,0
2022-11-08T00:21:54.753Z,0
2022-11-08T00:27:12.156Z,0
2022-11-08T00:32:29.428Z,0
2022-11-08T00:37:46.777Z,0
2022-11-08T00:43:03.991Z,0
2022-11-08T00:48:22.853Z,0
2022-11-08T00:53:42.467Z,0
2022-11-08T00:59:00.204Z,0
2022-11-08T01:04:17.426Z,0
2022-11-08T01:09:34.732Z,0
2022-11-08T01:14:54.706Z,0
2022-11-08T01:20:13.938Z,0
2022-11-08T01:25:31.366Z,0
2022-11-08T01:31:09.461Z,0
2022-11-08T01:36:27.017Z,0
2022-11-08T01:41:44.140Z,0
2022-11-08T01:52:24.873Z,0
2022-11-08T01:57:42.124Z,0
2022-11-08T02:08:17.156Z,0
2022-11-08T02:13:37.292Z,0
2022-11-08T02:18:54.640Z,0
2022-11-08T02:24:11.849Z,0
2022-11-08T02:30:15.386Z,0
2022-11-08T02:35:33.312Z,0
2022-11-08T02:40:50.420Z,0
2022-11-08T02:46:07.756Z,0
2022-11-08T02:51:25.286Z,0
2022-11-08T02:56:42.391Z,0
2022-11-08T03:01:59.826Z,0
2022-11-08T03:07:20.820Z,0
2022-11-08T03:12:41.094Z,0
2022-11-08T03:17:58.289Z,0
2022-11-08T03:23:15.495Z,0
2022-11-08T03:28:35.625Z,0
2022-11-08T03:33:58.134Z,0
2022-11-08T03:39:16.081Z,0
2022-11-08T03:49:53.414Z,0
2022-11-08T03:55:10.697Z,0
2022-11-08T04:00:35.263Z,0
2022-11-08T04:05:52.906Z,0
2022-11-08T04:11:13.372Z,0
2022-11-08T04:16:34.069Z,0
2022-11-08T04:21:51.558Z,0
2022-11-08T04:27:14.816Z,0
2022-11-08T04:32:32.142Z,0
2022-11-08T04:37:49.296Z,0
2022-11-08T04:43:09.105Z,0
2022-11-08T04:48:26.512Z,0
2022-11-08T04:53:43.720Z,0
2022-11-08T04:59:00.972Z,0
2022-11-08T05:09:35.759Z,0
2022-11-08T05:14:52.959Z,0
2022-11-08T05:20:13.342Z,0
2022-11-08T05:25:51.768Z,0
2022-11-08T05:31:09.767Z,0
2022-11-08T05:36:26.869Z,0
2022-11-08T05:41:44.177Z,0
2022-11-08T05:47:01.478Z,0
2022-11-08T05:52:18.682Z,0
2022-11-08T05:57:39.654Z,0
2022-11-08T06:02:57.077Z,0
2022-11-08T06:08:15.103Z,0
2022-11-08T06:13:33.043Z,0
2022-11-08T06:18:50.433Z,17.1
2022-11-08T06:24:07.353Z,40.4
2022-11-08T06:29:24.293Z,82.9
2022-11-08T06:34:41.239Z,145
2022-11-08T06:39:58.133Z,233.3
2022-11-08T06:50:35.265Z,533.3
2022-11-08T06:55:52.241Z,763.3
2022-11-08T07:01:09.544Z,1022.5
2022-11-08T07:06:29.756Z,1257.1
2022-11-08T07:11:47.017Z,1550
2022-11-08T07:17:03.877Z,1764.2
2022-11-08T07:22:21.278Z,2051.7
2022-11-08T07:27:38.978Z,2652.5
2022-11-08T07:32:56.453Z,2815.8
2022-11-08T07:38:13.892Z,3037.5
2022-11-08T07:43:31.340Z,2940
2022-11-08T07:48:48.799Z,3180.8
2022-11-08T07:59:25.906Z,3686.7
2022-11-08T08:04:42.927Z,4171.3
2022-11-08T08:10:01.066Z,5190.8
2022-11-08T08:15:17.721Z,4994.2
2022-11-08T08:20:34.758Z,5983.3
2022-11-08T08:25:52.007Z,5514.6
2022-11-08T08:31:08.698Z,4955.4
2022-11-08T08:36:25.789Z,5689.2
2022-11-08T08:41:42.955Z,6047.9
2022-11-08T08:47:00.499Z,5895.4
2022-11-08T08:52:19.728Z,6319.6
2022-11-08T08:57:36.656Z,6888.3
2022-11-08T09:02:53.641Z,7194.6
2022-11-08T09:08:10.884Z,7516.3
2022-11-08T09:13:32.214Z,7716.7
2022-11-08T09:18:49.449Z,8823.7
2022-11-08T09:24:06.917Z,10066.7
2022-11-08T09:34:46.239Z,10037.1
2022-11-08T09:40:03.451Z,8835.4
2022-11-08T09:45:20.322Z,7950.4
2022-11-08T09:50:37.279Z,8281.7
2022-11-08T09:55:54.400Z,9587.5
2022-11-08T10:01:12.475Z,11896.2
2022-11-08T10:06:30.359Z,12105.4
2022-11-08T10:11:47.576Z,10992.1
2022-11-08T10:17:05.333Z,12592.5
2022-11-08T10:22:22.636Z,10850.8
2022-11-08T10:27:39.221Z,13677.5
2022-11-08T10:33:14.069Z,13198.3
2022-11-08T10:38:31.645Z,12882.5
2022-11-08T10:43:48.682Z,14020
2022-11-08T10:49:06.200Z,15419.6
2022-11-08T10:54:23.585Z,13084.2
2022-11-08T10:59:40.410Z,12512.9
2022-11-08T11:04:56.770Z,8134.6
2022-11-08T11:10:13.833Z,15043.3
2022-11-08T11:15:31.330Z,17087.1
2022-11-08T11:21:10.280Z,18465.4
2022-11-08T11:26:27.671Z,17240.4
2022-11-08T11:31:44.699Z,17713.3
2022-11-08T11:37:01.825Z,17675.8
2022-11-08T11:42:39.597Z,12698.7
2022-11-08T11:48:02.077Z,16555.4
2022-11-08T11:58:38.987Z,13267.5
2022-11-08T12:03:56.027Z,12483.3
2022-11-08T12:09:13.355Z,12738.7
2022-11-08T12:14:30.005Z,13221.7
2022-11-08T12:19:46.794Z,12450.8
2022-11-08T12:25:03.950Z,10082.5
2022-11-08T12:30:20.994Z,9600.4
2022-11-08T12:35:36.910Z,7702.5
2022-11-08T12:40:53.811Z,5024.6
2022-11-08T12:46:16.928Z,11010.8
2022-11-08T12:51:34.902Z,11887.9
2022-11-08T12:56:51.507Z,9609.6
2022-11-08T13:02:08.185Z,6983.3
2022-11-08T13:07:24.508Z,6892.1
2022-11-08T13:12:41.175Z,7566.7
2022-11-08T13:17:58.620Z,6632.9
2022-11-08T13:23:15.296Z,6083.8
2022-11-08T13:28:32.911Z,7689.6
2022-11-08T13:33:58.492Z,5529.6
2022-11-08T13:39:15.806Z,7179.2
2022-11-08T13:44:32.457Z,7590.8
2022-11-08T13:55:11.831Z,3742.1
2022-11-08T14:00:29.912Z,4003.8
2022-11-08T14:11:00.792Z,5048.3
2022-11-08T14:16:18.120Z,5023.3
2022-11-08T14:21:35.207Z,3652.9
2022-11-08T14:27:09.807Z,3881.7
2022-11-08T14:32:26.964Z,3299.2
2022-11-08T14:37:43.755Z,4625.4
2022-11-08T14:43:21.662Z,5731.7
2022-11-08T14:48:40.017Z,5581.7
2022-11-08T14:53:56.953Z,5035.4
2022-11-08T14:59:13.882Z,3212.1
2022-11-08T15:04:30.988Z,2141.7
2022-11-08T15:09:53.373Z,1585.4
2022-11-08T15:15:10.317Z,1654.6
2022-11-08T15:20:27.172Z,1484.6
2022-11-08T15:25:44.059Z,1095.8
2022-11-08T15:31:01.088Z,939.2
2022-11-08T15:36:17.813Z,732.9
2022-11-08T15:41:34.449Z,550
2022-11-08T15:46:51.112Z,408.3
2022-11-08T15:52:07.965Z,257.9
2022-11-08T15:57:24.824Z,160
2022-11-08T16:02:44.697Z,54.6
2022-11-08T16:08:25.485Z,59.6
2022-11-08T16:13:42.844Z,27.1
2022-11-08T16:19:00.371Z,0.9
2022-11-08T16:24:17.451Z,4.6
2022-11-08T16:29:35.286Z,1.6
2022-11-08T16:35:01.614Z,0.6
2022-11-08T16:40:19.003Z,0.1
2022-11-08T16:46:03.631Z,0
2022-11-08T16:51:22.190Z,0
2022-11-08T16:56:39.586Z,0
2022-11-08T17:01:56.767Z,0
2022-11-08T17:07:14.473Z,0
2022-11-08T17:12:31.961Z,0
2022-11-08T17:22:54.210Z,0
2022-11-08T17:28:11.781Z,0
2022-11-08T17:33:29.013Z,0
2022-11-08T17:38:46.383Z,0
2022-11-08T17:44:03.655Z,0
2022-11-08T17:49:21.020Z,0
2022-11-08T17:54:38.578Z,0
2022-11-08T18:00:09.966Z,0
2022-11-08T18:05:28.283Z,0
2022-11-08T18:10:45.630Z,0
2022-11-08T18:16:02.998Z,0
2022-11-08T18:21:20.460Z,0
2022-11-08T18:26:37.808Z,0
2022-11-08T18:31:55.062Z,0
2022-11-08T18:37:15.799Z,0
2022-11-08T18:47:50.311Z,0
2022-11-08T18:53:07.726Z,0
2022-11-08T18:58:25.972Z,0
2022-11-08T19:03:43.253Z,0
2022-11-08T19:09:00.443Z,0
2022-11-08T19:14:17.736Z,0
2022-11-08T19:19:35.395Z,0
2022-11-08T19:24:52.843Z,0
2022-11-08T19:30:10.307Z,0
2022-11-08T19:40:32.211Z,0
2022-11-08T19:45:51.717Z,0
2022-11-08T19:51:09.453Z,0
2022-11-08T19:56:43.668Z,0
2022-11-08T20:02:15.898Z,0
2022-11-08T20:12:51.159Z,0
2022-11-08T20:18:08.616Z,0
2022-11-08T20:23:26.251Z,0
2022-11-08T20:28:55.113Z,0
2022-11-08T20:34:13.371Z,0
2022-11-08T20:39:30.987Z,0
2022-11-08T20:44:48.431Z,0
2022-11-08T20:50:05.940Z,0
2022-11-08T20:55:23.369Z,0
2022-11-08T21:00:59.052Z,0
2022-11-08T21:06:17.075Z,0
2022-11-08T21:11:35.922Z,0
2022-11-08T21:17:20.018Z,0
2022-11-08T21:27:40.476Z,0
2022-11-08T21:32:57.740Z,0
2022-11-08T21:38:14.885Z,0
2022-11-08T21:43:32.177Z,0
2022-11-08T21:48:49.518Z,0
2022-11-08T21:54:06.829Z,0
2022-11-08T21:59:24.245Z,0
2022-11-08T22:04:41.969Z,0
2022-11-08T22:09:59.554Z,0
2022-11-08T22:15:16.955Z,0
2022-11-08T22:20:34.185Z,0
2022-11-08T22:25:51.865Z,0
2022-11-08T22:31:09.379Z,0
2022-11-08T22:36:26.596Z,0
2022-11-08T22:41:43.983Z,0
2022-11-08T22:47:01.190Z,0
2022-11-08T22:52:19.212Z,0
2022-11-08T22:57:36.509Z,0
2022-11-08T23:03:04.829Z,0
2022-11-08T23:08:22.390Z,0
2022-11-08T23:13:45.933Z,0
2022-11-08T23:19:04.187Z,0
2022-11-08T23:24:21.610Z,0
2022-11-08T23:29:44.897Z,0
2022-11-08T23:35:02.405Z,0
2022-11-08T23:40:22.948Z,0
2022-11-08T23:45:40.403Z,0
2022-11-08T23:51:02.853Z,0
2022-11-08T23:56:21.959Z,0
